sensor_id;sensor_type;location;lat;lon;timestamp;P1;durP1;ratioP1;P2;durP2;ratioP2
37657;SDS011;23500;53.268;8.308;2022-08-05T00:00:34;3.53;;;3.22;;
37657;SDS011;23500;53.268;8.308;2022-08-05T00:03:00;3.97;;;3.55;;
37657;SDS011;23500;53.268;8.308;2022-08-05T00:05:26;4.90;;;3.08;;
37657;SDS011;23500;53.268;8.308;2022-08-05T00:07:52;3.60;;;3.30;;
37657;SDS011;23500;53.268;8.308;2022-08-05T00:10:17;3.58;;;3.28;;
37657;SDS011;23500;53.268;8.308;2022-08-05T00:12:43;3.38;;;3.08;;
37657;SDS011;23500;53.268;8.308;2022-08-05T00:15:09;3.53;;;3.20;;
37657;SDS011;23500;53.268;8.308;2022-08-05T00:17:34;4.10;;;3.70;;
37657;SDS011;23500;53.268;8.308;2022-08-05T00:20:00;3.50;;;3.20;;
37657;SDS011;23500;53.268;8.308;2022-08-05T00:22:26;3.50;;;3.20;;
37657;SDS011;23500;53.268;8.308;2022-08-05T00:24:52;3.90;;;3.50;;
37657;SDS011;23500;53.268;8.308;2022-08-05T00:27:17;3.50;;;3.20;;
37657;SDS011;23500;53.268;8.308;2022-08-05T00:29:43;3.22;;;2.92;;
37657;SDS011;23500;53.268;8.308;2022-08-05T00:32:09;3.35;;;3.05;;
37657;SDS011;23500;53.268;8.308;2022-08-05T00:34:38;3.42;;;3.10;;
37657;SDS011;23500;53.268;8.308;2022-08-05T00:37:04;3.92;;;3.35;;
37657;SDS011;23500;53.268;8.308;2022-08-05T00:39:30;3.58;;;3.28;;
37657;SDS011;23500;53.268;8.308;2022-08-05T00:41:55;4.15;;;3.75;;
37657;SDS011;23500;53.268;8.308;2022-08-05T00:44:22;3.50;;;3.20;;
37657;SDS011;23500;53.268;8.308;2022-08-05T00:46:48;3.80;;;3.50;;
37657;SDS011;23500;53.268;8.308;2022-08-05T00:49:13;3.15;;;2.85;;
37657;SDS011;23500;53.268;8.308;2022-08-05T00:51:43;4.15;;;3.75;;
37657;SDS011;23500;53.268;8.308;2022-08-05T00:54:10;3.90;;;3.45;;
37657;SDS011;23500;53.268;8.308;2022-08-05T00:56:38;3.55;;;3.22;;
37657;SDS011;23500;53.268;8.308;2022-08-05T00:59:04;3.47;;;3.15;;
37657;SDS011;23500;53.268;8.308;2022-08-05T01:01:31;3.40;;;3.10;;
37657;SDS011;23500;53.268;8.308;2022-08-05T01:03:56;4.07;;;3.75;;
37657;SDS011;23500;53.268;8.308;2022-08-05T01:06:22;4.57;;;3.83;;
37657;SDS011;23500;53.268;8.308;2022-08-05T01:08:48;4.57;;;3.28;;
37657;SDS011;23500;53.268;8.308;2022-08-05T01:13:47;3.80;;;3.47;;
37657;SDS011;23500;53.268;8.308;2022-08-05T01:16:20;3.95;;;3.13;;
37657;SDS011;23500;53.268;8.308;2022-08-05T01:18:56;3.67;;;3.38;;
37657;SDS011;23500;53.268;8.308;2022-08-05T01:30:11;3.88;;;3.17;;
37657;SDS011;23500;53.268;8.308;2022-08-05T01:32:37;3.17;;;2.88;;
37657;SDS011;23500;53.268;8.308;2022-08-05T01:35:08;3.35;;;3.05;;
37657;SDS011;23500;53.268;8.308;2022-08-05T01:37:46;3.78;;;3.40;;
37657;SDS011;23500;53.268;8.308;2022-08-05T01:40:16;3.65;;;3.08;;
37657;SDS011;23500;53.268;8.308;2022-08-05T01:42:45;4.05;;;3.20;;
37657;SDS011;23500;53.268;8.308;2022-08-05T01:45:13;3.40;;;3.10;;
37657;SDS011;23500;53.268;8.308;2022-08-05T01:47:40;3.78;;;3.17;;
37657;SDS011;23500;53.268;8.308;2022-08-05T01:50:09;4.15;;;3.45;;
37657;SDS011;23500;53.268;8.308;2022-08-05T01:52:37;3.58;;;3.28;;
37657;SDS011;23500;53.268;8.308;2022-08-05T01:55:05;3.33;;;2.97;;
37657;SDS011;23500;53.268;8.308;2022-08-05T01:57:35;3.28;;;3.08;;
37657;SDS011;23500;53.268;8.308;2022-08-05T02:00:05;3.30;;;3.00;;
37657;SDS011;23500;53.268;8.308;2022-08-05T02:02:33;3.53;;;3.22;;
37657;SDS011;23500;53.268;8.308;2022-08-05T02:05:03;3.38;;;3.08;;
37657;SDS011;23500;53.268;8.308;2022-08-05T02:07:32;3.08;;;2.83;;
37657;SDS011;23500;53.268;8.308;2022-08-05T02:09:58;3.42;;;3.13;;
37657;SDS011;23500;53.268;8.308;2022-08-05T02:20:39;3.28;;;2.92;;
37657;SDS011;23500;53.268;8.308;2022-08-05T02:23:11;3.92;;;3.40;;
37657;SDS011;23500;53.268;8.308;2022-08-05T02:25:39;3.67;;;3.10;;
37657;SDS011;23500;53.268;8.308;2022-08-05T02:28:07;3.35;;;3.05;;
37657;SDS011;23500;53.268;8.308;2022-08-05T02:30:41;3.38;;;3.17;;
37657;SDS011;23500;53.268;8.308;2022-08-05T02:33:13;3.17;;;2.97;;
37657;SDS011;23500;53.268;8.308;2022-08-05T02:35:40;3.20;;;2.90;;
37657;SDS011;23500;53.268;8.308;2022-08-05T02:38:08;3.55;;;3.25;;
37657;SDS011;23500;53.268;8.308;2022-08-05T02:40:37;3.40;;;3.10;;
37657;SDS011;23500;53.268;8.308;2022-08-05T02:43:06;3.65;;;3.00;;
37657;SDS011;23500;53.268;8.308;2022-08-05T02:45:33;3.22;;;3.00;;
37657;SDS011;23500;53.268;8.308;2022-08-05T02:48:00;3.60;;;3.30;;
37657;SDS011;23500;53.268;8.308;2022-08-05T02:50:28;3.58;;;3.13;;
37657;SDS011;23500;53.268;8.308;2022-08-05T02:52:54;3.85;;;3.15;;
37657;SDS011;23500;53.268;8.308;2022-08-05T02:55:21;3.50;;;3.10;;
37657;SDS011;23500;53.268;8.308;2022-08-05T02:57:47;3.47;;;3.17;;
37657;SDS011;23500;53.268;8.308;2022-08-05T03:00:15;3.67;;;3.38;;
37657;SDS011;23500;53.268;8.308;2022-08-05T03:02:41;3.17;;;2.97;;
37657;SDS011;23500;53.268;8.308;2022-08-05T03:05:10;3.85;;;3.28;;
37657;SDS011;23500;53.268;8.308;2022-08-05T03:07:38;3.17;;;2.97;;
37657;SDS011;23500;53.268;8.308;2022-08-05T03:10:05;3.78;;;3.40;;
37657;SDS011;23500;53.268;8.308;2022-08-05T03:12:36;3.65;;;3.35;;
37657;SDS011;23500;53.268;8.308;2022-08-05T03:15:07;3.35;;;3.00;;
37657;SDS011;23500;53.268;8.308;2022-08-05T03:17:34;3.22;;;2.92;;
37657;SDS011;23500;53.268;8.308;2022-08-05T03:20:01;3.28;;;2.92;;
37657;SDS011;23500;53.268;8.308;2022-08-05T03:22:27;3.17;;;2.97;;
37657;SDS011;23500;53.268;8.308;2022-08-05T03:24:53;4.07;;;3.50;;
37657;SDS011;23500;53.268;8.308;2022-08-05T03:27:19;3.40;;;3.10;;
37657;SDS011;23500;53.268;8.308;2022-08-05T03:29:46;3.60;;;3.30;;
37657;SDS011;23500;53.268;8.308;2022-08-05T03:32:12;3.95;;;3.42;;
37657;SDS011;23500;53.268;8.308;2022-08-05T03:34:39;4.00;;;3.60;;
37657;SDS011;23500;53.268;8.308;2022-08-05T03:37:06;3.20;;;2.90;;
37657;SDS011;23500;53.268;8.308;2022-08-05T03:39:31;3.17;;;2.97;;
37657;SDS011;23500;53.268;8.308;2022-08-05T03:41:57;3.30;;;2.95;;
37657;SDS011;23500;53.268;8.308;2022-08-05T03:44:23;3.13;;;2.78;;
37657;SDS011;23500;53.268;8.308;2022-08-05T03:46:50;2.92;;;2.65;;
37657;SDS011;23500;53.268;8.308;2022-08-05T03:49:15;3.20;;;2.90;;
37657;SDS011;23500;53.268;8.308;2022-08-05T03:51:42;3.28;;;2.95;;
37657;SDS011;23500;53.268;8.308;2022-08-05T03:57:03;3.40;;;3.10;;
37657;SDS011;23500;53.268;8.308;2022-08-05T03:59:34;3.38;;;3.08;;
37657;SDS011;23500;53.268;8.308;2022-08-05T04:02:05;3.28;;;2.83;;
37657;SDS011;23500;53.268;8.308;2022-08-05T04:04:32;3.38;;;3.08;;
37657;SDS011;23500;53.268;8.308;2022-08-05T04:06:59;3.30;;;3.00;;
37657;SDS011;23500;53.268;8.308;2022-08-05T04:09:25;2.85;;;2.65;;
37657;SDS011;23500;53.268;8.308;2022-08-05T04:11:54;3.47;;;3.17;;
37657;SDS011;23500;53.268;8.308;2022-08-05T04:14:20;3.17;;;2.88;;
37657;SDS011;23500;53.268;8.308;2022-08-05T04:16:46;2.85;;;2.65;;
37657;SDS011;23500;53.268;8.308;2022-08-05T04:19:12;3.40;;;3.10;;
37657;SDS011;23500;53.268;8.308;2022-08-05T04:21:39;3.33;;;3.10;;
37657;SDS011;23500;53.268;8.308;2022-08-05T04:24:05;3.10;;;2.78;;
37657;SDS011;23500;53.268;8.308;2022-08-05T04:26:32;4.10;;;2.60;;
37657;SDS011;23500;53.268;8.308;2022-08-05T04:28:58;2.88;;;2.67;;
37657;SDS011;23500;53.268;8.308;2022-08-05T04:31:24;3.13;;;2.90;;
37657;SDS011;23500;53.268;8.308;2022-08-05T04:33:49;2.85;;;2.65;;
37657;SDS011;23500;53.268;8.308;2022-08-05T04:36:15;2.63;;;2.42;;
37657;SDS011;23500;53.268;8.308;2022-08-05T04:38:41;2.90;;;2.70;;
37657;SDS011;23500;53.268;8.308;2022-08-05T04:41:07;3.53;;;3.22;;
37657;SDS011;23500;53.268;8.308;2022-08-05T04:43:33;2.72;;;2.53;;
37657;SDS011;23500;53.268;8.308;2022-08-05T04:45:59;3.03;;;2.80;;
37657;SDS011;23500;53.268;8.308;2022-08-05T04:48:25;2.80;;;2.60;;
37657;SDS011;23500;53.268;8.308;2022-08-05T04:50:51;2.92;;;2.63;;
37657;SDS011;23500;53.268;8.308;2022-08-05T04:53:17;3.00;;;2.70;;
37657;SDS011;23500;53.268;8.308;2022-08-05T04:55:43;2.78;;;2.58;;
37657;SDS011;23500;53.268;8.308;2022-08-05T04:58:11;3.03;;;2.83;;
37657;SDS011;23500;53.268;8.308;2022-08-05T05:00:39;3.08;;;2.78;;
37657;SDS011;23500;53.268;8.308;2022-08-05T05:03:05;3.13;;;2.90;;
37657;SDS011;23500;53.268;8.308;2022-08-05T05:05:32;2.88;;;2.67;;
37657;SDS011;23500;53.268;8.308;2022-08-05T05:08:02;2.92;;;2.60;;
37657;SDS011;23500;53.268;8.308;2022-08-05T05:10:29;3.22;;;2.97;;
37657;SDS011;23500;53.268;8.308;2022-08-05T05:12:56;3.88;;;2.63;;
37657;SDS011;23500;53.268;8.308;2022-08-05T05:15:22;2.92;;;2.72;;
37657;SDS011;23500;53.268;8.308;2022-08-05T05:17:48;2.75;;;2.55;;
37657;SDS011;23500;53.268;8.308;2022-08-05T05:20:13;3.10;;;2.80;;
37657;SDS011;23500;53.268;8.308;2022-08-05T05:22:39;2.60;;;2.40;;
37657;SDS011;23500;53.268;8.308;2022-08-05T05:25:06;2.20;;;2.08;;
37657;SDS011;23500;53.268;8.308;2022-08-05T05:27:33;2.75;;;2.55;;
37657;SDS011;23500;53.268;8.308;2022-08-05T05:30:00;3.20;;;2.92;;
37657;SDS011;23500;53.268;8.308;2022-08-05T05:32:26;2.60;;;2.40;;
37657;SDS011;23500;53.268;8.308;2022-08-05T05:34:51;2.95;;;2.70;;
37657;SDS011;23500;53.268;8.308;2022-08-05T05:37:17;3.10;;;2.90;;
37657;SDS011;23500;53.268;8.308;2022-08-05T05:39:43;2.85;;;2.65;;
37657;SDS011;23500;53.268;8.308;2022-08-05T05:42:09;2.97;;;2.75;;
37657;SDS011;23500;53.268;8.308;2022-08-05T05:44:34;3.08;;;2.80;;
37657;SDS011;23500;53.268;8.308;2022-08-05T05:47:00;2.95;;;2.65;;
37657;SDS011;23500;53.268;8.308;2022-08-05T05:49:26;2.58;;;2.38;;
37657;SDS011;23500;53.268;8.308;2022-08-05T05:51:52;2.80;;;2.60;;
37657;SDS011;23500;53.268;8.308;2022-08-05T05:54:19;2.88;;;2.60;;
37657;SDS011;23500;53.268;8.308;2022-08-05T05:56:44;2.60;;;2.40;;
37657;SDS011;23500;53.268;8.308;2022-08-05T05:59:10;3.10;;;2.80;;
37657;SDS011;23500;53.268;8.308;2022-08-05T06:01:40;2.70;;;2.50;;
37657;SDS011;23500;53.268;8.308;2022-08-05T06:04:07;2.70;;;2.50;;
37657;SDS011;23500;53.268;8.308;2022-08-05T06:06:37;2.58;;;2.38;;
37657;SDS011;23500;53.268;8.308;2022-08-05T06:09:03;2.60;;;2.40;;
37657;SDS011;23500;53.268;8.308;2022-08-05T06:11:30;2.70;;;2.50;;
37657;SDS011;23500;53.268;8.308;2022-08-05T06:13:56;2.67;;;2.47;;
37657;SDS011;23500;53.268;8.308;2022-08-05T06:16:22;2.80;;;2.60;;
37657;SDS011;23500;53.268;8.308;2022-08-05T06:18:47;2.60;;;2.40;;
37657;SDS011;23500;53.268;8.308;2022-08-05T06:21:13;2.50;;;2.30;;
37657;SDS011;23500;53.268;8.308;2022-08-05T06:23:39;2.63;;;2.42;;
37657;SDS011;23500;53.268;8.308;2022-08-05T06:26:05;2.53;;;2.25;;
37657;SDS011;23500;53.268;8.308;2022-08-05T06:28:30;2.92;;;2.38;;
37657;SDS011;23500;53.268;8.308;2022-08-05T06:30:56;2.70;;;2.50;;
37657;SDS011;23500;53.268;8.308;2022-08-05T06:33:22;2.80;;;2.60;;
37657;SDS011;23500;53.268;8.308;2022-08-05T06:35:47;2.58;;;2.38;;
37657;SDS011;23500;53.268;8.308;2022-08-05T06:38:13;6.80;;;3.78;;
37657;SDS011;23500;53.268;8.308;2022-08-05T06:40:40;4.45;;;3.92;;
37657;SDS011;23500;53.268;8.308;2022-08-05T06:43:07;7.43;;;4.70;;
37657;SDS011;23500;53.268;8.308;2022-08-05T06:45:32;5.90;;;4.88;;
37657;SDS011;23500;53.268;8.308;2022-08-05T06:47:58;7.28;;;5.13;;
37657;SDS011;23500;53.268;8.308;2022-08-05T06:50:24;8.52;;;5.80;;
37657;SDS011;23500;53.268;8.308;2022-08-05T06:52:51;13.13;;;6.40;;
37657;SDS011;23500;53.268;8.308;2022-08-05T06:55:16;7.00;;;6.20;;
37657;SDS011;23500;53.268;8.308;2022-08-05T06:57:42;8.00;;;6.03;;
37657;SDS011;23500;53.268;8.308;2022-08-05T07:00:08;8.95;;;6.30;;
37657;SDS011;23500;53.268;8.308;2022-08-05T07:02:41;8.30;;;6.10;;
37657;SDS011;23500;53.268;8.308;2022-08-05T07:05:08;11.05;;;7.03;;
37657;SDS011;23500;53.268;8.308;2022-08-05T07:07:34;9.80;;;6.13;;
37657;SDS011;23500;53.268;8.308;2022-08-05T07:10:00;8.88;;;5.82;;
37657;SDS011;23500;53.268;8.308;2022-08-05T07:12:26;6.35;;;5.72;;
37657;SDS011;23500;53.268;8.308;2022-08-05T07:15:10;9.30;;;6.65;;
37657;SDS011;23500;53.268;8.308;2022-08-05T07:17:54;11.23;;;6.18;;
37657;SDS011;23500;53.268;8.308;2022-08-05T07:20:20;10.23;;;6.18;;
37657;SDS011;23500;53.268;8.308;2022-08-05T07:22:45;7.65;;;6.72;;
37657;SDS011;23500;53.268;8.308;2022-08-05T07:25:11;8.50;;;7.07;;
37657;SDS011;23500;53.268;8.308;2022-08-05T07:27:36;7.60;;;6.60;;
37657;SDS011;23500;53.268;8.308;2022-08-05T07:30:02;9.60;;;6.88;;
37657;SDS011;23500;53.268;8.308;2022-08-05T07:32:28;7.97;;;6.57;;
37657;SDS011;23500;53.268;8.308;2022-08-05T07:34:58;8.27;;;6.13;;
37657;SDS011;23500;53.268;8.308;2022-08-05T07:37:24;9.13;;;6.70;;
37657;SDS011;23500;53.268;8.308;2022-08-05T07:39:49;8.65;;;6.85;;
37657;SDS011;23500;53.268;8.308;2022-08-05T07:42:15;9.95;;;6.72;;
37657;SDS011;23500;53.268;8.308;2022-08-05T07:44:41;9.80;;;6.82;;
37657;SDS011;23500;53.268;8.308;2022-08-05T07:47:07;9.52;;;7.32;;
37657;SDS011;23500;53.268;8.308;2022-08-05T07:49:32;7.85;;;6.85;;
37657;SDS011;23500;53.268;8.308;2022-08-05T07:51:58;9.80;;;7.32;;
37657;SDS011;23500;53.268;8.308;2022-08-05T07:54:24;10.68;;;7.20;;
37657;SDS011;23500;53.268;8.308;2022-08-05T07:56:53;7.70;;;6.40;;
37657;SDS011;23500;53.268;8.308;2022-08-05T07:59:19;9.05;;;6.93;;
37657;SDS011;23500;53.268;8.308;2022-08-05T08:01:44;7.30;;;6.60;;
37657;SDS011;23500;53.268;8.308;2022-08-05T08:04:10;9.10;;;7.35;;
37657;SDS011;23500;53.268;8.308;2022-08-05T08:06:35;9.60;;;6.97;;
37657;SDS011;23500;53.268;8.308;2022-08-05T08:09:01;7.32;;;6.50;;
37657;SDS011;23500;53.268;8.308;2022-08-05T08:11:27;8.35;;;6.38;;
37657;SDS011;23500;53.268;8.308;2022-08-05T08:13:53;9.07;;;6.90;;
37657;SDS011;23500;53.268;8.308;2022-08-05T08:16:19;10.52;;;7.05;;
37657;SDS011;23500;53.268;8.308;2022-08-05T08:18:45;8.38;;;7.07;;
37657;SDS011;23500;53.268;8.308;2022-08-05T08:21:10;6.93;;;5.60;;
37657;SDS011;23500;53.268;8.308;2022-08-05T08:23:36;7.32;;;5.47;;
37657;SDS011;23500;53.268;8.308;2022-08-05T08:26:02;7.43;;;4.70;;
37657;SDS011;23500;53.268;8.308;2022-08-05T08:28:27;6.85;;;4.47;;
37657;SDS011;23500;53.268;8.308;2022-08-05T08:30:54;7.15;;;4.22;;
37657;SDS011;23500;53.268;8.308;2022-08-05T08:33:19;4.57;;;3.70;;
37657;SDS011;23500;53.268;8.308;2022-08-05T08:35:45;7.50;;;4.20;;
37657;SDS011;23500;53.268;8.308;2022-08-05T08:38:11;4.63;;;3.30;;
37657;SDS011;23500;53.268;8.308;2022-08-05T08:40:38;4.15;;;3.50;;
37657;SDS011;23500;53.268;8.308;2022-08-05T08:43:04;6.40;;;4.00;;
37657;SDS011;23500;53.268;8.308;2022-08-05T08:45:30;5.18;;;3.65;;
37657;SDS011;23500;53.268;8.308;2022-08-05T08:47:57;4.72;;;3.63;;
37657;SDS011;23500;53.268;8.308;2022-08-05T08:50:27;4.05;;;3.65;;
37657;SDS011;23500;53.268;8.308;2022-08-05T08:52:55;3.75;;;3.38;;
37657;SDS011;23500;53.268;8.308;2022-08-05T08:55:27;4.82;;;3.20;;
37657;SDS011;23500;53.268;8.308;2022-08-05T08:57:53;4.13;;;3.60;;
37657;SDS011;23500;53.268;8.308;2022-08-05T09:00:19;4.30;;;3.60;;
37657;SDS011;23500;53.268;8.308;2022-08-05T09:02:45;5.05;;;3.58;;
37657;SDS011;23500;53.268;8.308;2022-08-05T09:05:11;5.03;;;4.00;;
37657;SDS011;23500;53.268;8.308;2022-08-05T09:07:37;3.60;;;3.20;;
37657;SDS011;23500;53.268;8.308;2022-08-05T09:10:03;5.05;;;3.60;;
37657;SDS011;23500;53.268;8.308;2022-08-05T09:12:29;5.55;;;3.40;;
37657;SDS011;23500;53.268;8.308;2022-08-05T09:14:55;4.22;;;3.33;;
37657;SDS011;23500;53.268;8.308;2022-08-05T09:17:20;3.80;;;3.50;;
37657;SDS011;23500;53.268;8.308;2022-08-05T09:19:46;4.32;;;3.65;;
37657;SDS011;23500;53.268;8.308;2022-08-05T09:22:12;4.20;;;3.80;;
37657;SDS011;23500;53.268;8.308;2022-08-05T09:24:37;4.13;;;3.25;;
37657;SDS011;23500;53.268;8.308;2022-08-05T09:27:06;4.38;;;3.63;;
37657;SDS011;23500;53.268;8.308;2022-08-05T09:29:42;4.60;;;3.30;;
37657;SDS011;23500;53.268;8.308;2022-08-05T09:32:12;4.10;;;3.38;;
37657;SDS011;23500;53.268;8.308;2022-08-05T09:34:45;3.95;;;3.42;;
37657;SDS011;23500;53.268;8.308;2022-08-05T09:37:24;5.05;;;3.60;;
37657;SDS011;23500;53.268;8.308;2022-08-05T09:39:50;3.70;;;3.30;;
37657;SDS011;23500;53.268;8.308;2022-08-05T09:42:17;3.35;;;3.15;;
37657;SDS011;23500;53.268;8.308;2022-08-05T09:44:45;4.72;;;3.70;;
37657;SDS011;23500;53.268;8.308;2022-08-05T09:52:15;4.75;;;2.92;;
37657;SDS011;23500;53.268;8.308;2022-08-05T09:54:51;3.90;;;3.30;;
37657;SDS011;23500;53.268;8.308;2022-08-05T10:02:42;4.65;;;3.15;;
37657;SDS011;23500;53.268;8.308;2022-08-05T10:05:10;3.47;;;3.10;;
37657;SDS011;23500;53.268;8.308;2022-08-05T10:07:45;3.40;;;3.10;;
37657;SDS011;23500;53.268;8.308;2022-08-05T10:10:22;4.10;;;3.25;;
37657;SDS011;23500;53.268;8.308;2022-08-05T10:12:57;3.38;;;3.17;;
37657;SDS011;23500;53.268;8.308;2022-08-05T10:15:32;3.92;;;3.20;;
37657;SDS011;23500;53.268;8.308;2022-08-05T10:20:40;6.57;;;3.50;;
37657;SDS011;23500;53.268;8.308;2022-08-05T10:23:06;3.42;;;3.10;;
37657;SDS011;23500;53.268;8.308;2022-08-05T10:25:34;4.32;;;3.22;;
37657;SDS011;23500;53.268;8.308;2022-08-05T10:28:00;6.43;;;3.65;;
37657;SDS011;23500;53.268;8.308;2022-08-05T10:30:26;6.07;;;2.67;;
37657;SDS011;23500;53.268;8.308;2022-08-05T10:32:53;6.35;;;2.60;;
37657;SDS011;23500;53.268;8.308;2022-08-05T10:35:21;3.85;;;2.28;;
37657;SDS011;23500;53.268;8.308;2022-08-05T10:37:46;3.22;;;2.28;;
37657;SDS011;23500;53.268;8.308;2022-08-05T10:40:33;3.55;;;2.05;;
37657;SDS011;23500;53.268;8.308;2022-08-05T10:43:11;4.00;;;2.05;;
37657;SDS011;23500;53.268;8.308;2022-08-05T10:45:56;3.38;;;1.50;;
37657;SDS011;23500;53.268;8.308;2022-08-05T10:48:36;2.60;;;1.80;;
37657;SDS011;23500;53.268;8.308;2022-08-05T10:56:20;4.45;;;1.75;;
37657;SDS011;23500;53.268;8.308;2022-08-05T11:01:28;2.38;;;1.38;;
37657;SDS011;23500;53.268;8.308;2022-08-05T11:04:01;3.00;;;1.50;;
37657;SDS011;23500;53.268;8.308;2022-08-05T11:06:31;3.00;;;1.58;;
37657;SDS011;23500;53.268;8.308;2022-08-05T11:11:48;4.00;;;2.10;;
37657;SDS011;23500;53.268;8.308;2022-08-05T11:14:49;3.88;;;1.90;;
37657;SDS011;23500;53.268;8.308;2022-08-05T11:19:52;2.45;;;2.25;;
37657;SDS011;23500;53.268;8.308;2022-08-05T11:22:38;5.55;;;2.03;;
37657;SDS011;23500;53.268;8.308;2022-08-05T11:25:49;3.05;;;2.30;;
37657;SDS011;23500;53.268;8.308;2022-08-05T11:33:35;3.60;;;2.60;;
37657;SDS011;23500;53.268;8.308;2022-08-05T11:39:12;2.95;;;2.30;;
37657;SDS011;23500;53.268;8.308;2022-08-05T11:41:40;4.78;;;2.90;;
37657;SDS011;23500;53.268;8.308;2022-08-05T11:44:14;4.03;;;2.70;;
37657;SDS011;23500;53.268;8.308;2022-08-05T11:49:13;4.45;;;2.97;;
37657;SDS011;23500;53.268;8.308;2022-08-05T11:51:47;4.30;;;2.92;;
37657;SDS011;23500;53.268;8.308;2022-08-05T11:54:19;4.05;;;2.50;;
37657;SDS011;23500;53.268;8.308;2022-08-05T11:56:52;3.58;;;2.83;;
37657;SDS011;23500;53.268;8.308;2022-08-05T11:59:23;3.13;;;2.63;;
37657;SDS011;23500;53.268;8.308;2022-08-05T12:02:01;4.35;;;2.58;;
37657;SDS011;23500;53.268;8.308;2022-08-05T12:07:05;4.20;;;2.92;;
37657;SDS011;23500;53.268;8.308;2022-08-05T12:09:35;4.50;;;2.88;;
37657;SDS011;23500;53.268;8.308;2022-08-05T12:12:02;2.53;;;2.30;;
37657;SDS011;23500;53.268;8.308;2022-08-05T12:14:39;3.08;;;2.47;;
37657;SDS011;23500;53.268;8.308;2022-08-05T12:17:09;2.80;;;2.30;;
37657;SDS011;23500;53.268;8.308;2022-08-05T12:19:43;3.08;;;2.42;;
37657;SDS011;23500;53.268;8.308;2022-08-05T12:22:11;2.30;;;2.15;;
37657;SDS011;23500;53.268;8.308;2022-08-05T12:24:45;2.88;;;2.20;;
37657;SDS011;23500;53.268;8.308;2022-08-05T12:27:22;2.83;;;2.47;;
37657;SDS011;23500;53.268;8.308;2022-08-05T12:32:42;2.78;;;2.20;;
37657;SDS011;23500;53.268;8.308;2022-08-05T12:35:09;4.18;;;2.40;;
37657;SDS011;23500;53.268;8.308;2022-08-05T12:37:35;4.30;;;2.50;;
37657;SDS011;23500;53.268;8.308;2022-08-05T12:40:01;3.55;;;2.50;;
37657;SDS011;23500;53.268;8.308;2022-08-05T12:42:28;2.97;;;2.15;;
37657;SDS011;23500;53.268;8.308;2022-08-05T12:45:02;2.78;;;2.58;;
37657;SDS011;23500;53.268;8.308;2022-08-05T12:47:30;3.05;;;2.53;;
37657;SDS011;23500;53.268;8.308;2022-08-05T12:49:57;3.67;;;2.10;;
37657;SDS011;23500;53.268;8.308;2022-08-05T12:52:23;2.47;;;2.28;;
37657;SDS011;23500;53.268;8.308;2022-08-05T12:54:49;3.17;;;2.67;;
37657;SDS011;23500;53.268;8.308;2022-08-05T12:57:15;3.38;;;2.67;;
37657;SDS011;23500;53.268;8.308;2022-08-05T13:02:10;2.53;;;2.33;;
37657;SDS011;23500;53.268;8.308;2022-08-05T13:04:39;2.70;;;2.50;;
37657;SDS011;23500;53.268;8.308;2022-08-05T13:07:07;2.83;;;2.10;;
37657;SDS011;23500;53.268;8.308;2022-08-05T13:09:37;4.30;;;2.20;;
37657;SDS011;23500;53.268;8.308;2022-08-05T13:12:04;3.83;;;2.00;;
37657;SDS011;23500;53.268;8.308;2022-08-05T13:14:36;3.30;;;2.53;;
37657;SDS011;23500;53.268;8.308;2022-08-05T13:17:14;3.33;;;2.38;;
37657;SDS011;23500;53.268;8.308;2022-08-05T13:19:42;3.17;;;2.40;;
37657;SDS011;23500;53.268;8.308;2022-08-05T13:22:33;2.80;;;2.30;;
37657;SDS011;23500;53.268;8.308;2022-08-05T13:25:01;2.97;;;2.50;;
37657;SDS011;23500;53.268;8.308;2022-08-05T13:27:32;2.97;;;2.63;;
37657;SDS011;23500;53.268;8.308;2022-08-05T13:30:06;2.85;;;2.30;;
37657;SDS011;23500;53.268;8.308;2022-08-05T13:32:33;3.03;;;2.30;;
37657;SDS011;23500;53.268;8.308;2022-08-05T13:34:59;2.60;;;2.40;;
37657;SDS011;23500;53.268;8.308;2022-08-05T13:37:24;2.22;;;1.90;;
37657;SDS011;23500;53.268;8.308;2022-08-05T13:39:50;2.67;;;1.80;;
37657;SDS011;23500;53.268;8.308;2022-08-05T13:42:20;1.92;;;1.65;;
37657;SDS011;23500;53.268;8.308;2022-08-05T13:44:51;2.85;;;2.15;;
37657;SDS011;23500;53.268;8.308;2022-08-05T13:47:17;8.02;;;1.73;;
37657;SDS011;23500;53.268;8.308;2022-08-05T13:49:43;3.15;;;1.98;;
37657;SDS011;23500;53.268;8.308;2022-08-05T13:52:10;3.20;;;1.75;;
37657;SDS011;23500;53.268;8.308;2022-08-05T13:54:36;2.53;;;1.42;;
37657;SDS011;23500;53.268;8.308;2022-08-05T13:57:02;3.63;;;1.65;;
37657;SDS011;23500;53.268;8.308;2022-08-05T13:59:28;4.28;;;1.70;;
37657;SDS011;23500;53.268;8.308;2022-08-05T14:01:54;7.75;;;1.80;;
37657;SDS011;23500;53.268;8.308;2022-08-05T14:04:21;3.47;;;1.58;;
37657;SDS011;23500;53.268;8.308;2022-08-05T14:07:05;1.52;;;1.30;;
37657;SDS011;23500;53.268;8.308;2022-08-05T14:09:32;2.28;;;1.30;;
37657;SDS011;23500;53.268;8.308;2022-08-05T14:11:59;1.95;;;1.50;;
37657;SDS011;23500;53.268;8.308;2022-08-05T14:14:24;2.88;;;1.45;;
37657;SDS011;23500;53.268;8.308;2022-08-05T14:16:50;2.17;;;1.15;;
37657;SDS011;23500;53.268;8.308;2022-08-05T14:19:16;4.45;;;1.75;;
37657;SDS011;23500;53.268;8.308;2022-08-05T14:21:42;3.33;;;1.23;;
37657;SDS011;23500;53.268;8.308;2022-08-05T14:24:08;1.92;;;1.25;;
37657;SDS011;23500;53.268;8.308;2022-08-05T14:26:35;2.28;;;1.38;;
37657;SDS011;23500;53.268;8.308;2022-08-05T14:29:01;2.30;;;1.30;;
37657;SDS011;23500;53.268;8.308;2022-08-05T14:31:28;3.05;;;1.40;;
37657;SDS011;23500;53.268;8.308;2022-08-05T14:33:54;2.78;;;1.30;;
37657;SDS011;23500;53.268;8.308;2022-08-05T14:36:19;2.58;;;1.50;;
37657;SDS011;23500;53.268;8.308;2022-08-05T14:38:45;2.42;;;1.50;;
37657;SDS011;23500;53.268;8.308;2022-08-05T14:41:11;4.47;;;1.50;;
37657;SDS011;23500;53.268;8.308;2022-08-05T14:43:37;4.65;;;1.52;;
37657;SDS011;23500;53.268;8.308;2022-08-05T14:46:03;3.33;;;1.33;;
37657;SDS011;23500;53.268;8.308;2022-08-05T14:48:29;1.67;;;1.40;;
37657;SDS011;23500;53.268;8.308;2022-08-05T14:50:54;2.55;;;1.60;;
37657;SDS011;23500;53.268;8.308;2022-08-05T14:53:20;1.85;;;1.50;;
37657;SDS011;23500;53.268;8.308;2022-08-05T14:55:45;2.35;;;1.30;;
37657;SDS011;23500;53.268;8.308;2022-08-05T14:58:11;1.35;;;1.25;;
37657;SDS011;23500;53.268;8.308;2022-08-05T15:00:37;1.45;;;1.23;;
37657;SDS011;23500;53.268;8.308;2022-08-05T15:03:03;1.85;;;1.52;;
37657;SDS011;23500;53.268;8.308;2022-08-05T15:05:33;1.55;;;1.30;;
37657;SDS011;23500;53.268;8.308;2022-08-05T15:07:59;2.72;;;1.33;;
37657;SDS011;23500;53.268;8.308;2022-08-05T15:10:25;2.30;;;1.27;;
37657;SDS011;23500;53.268;8.308;2022-08-05T15:12:51;1.80;;;1.50;;
37657;SDS011;23500;53.268;8.308;2022-08-05T15:15:17;2.63;;;1.45;;
37657;SDS011;23500;53.268;8.308;2022-08-05T15:17:43;2.45;;;1.10;;
37657;SDS011;23500;53.268;8.308;2022-08-05T15:20:09;3.00;;;1.30;;
37657;SDS011;23500;53.268;8.308;2022-08-05T15:22:35;2.13;;;1.17;;
37657;SDS011;23500;53.268;8.308;2022-08-05T15:25:02;1.85;;;1.15;;
37657;SDS011;23500;53.268;8.308;2022-08-05T15:27:28;1.92;;;1.00;;
37657;SDS011;23500;53.268;8.308;2022-08-05T15:29:53;1.23;;;1.00;;
37657;SDS011;23500;53.268;8.308;2022-08-05T15:32:19;1.58;;;1.10;;
37657;SDS011;23500;53.268;8.308;2022-08-05T15:34:45;4.35;;;1.23;;
37657;SDS011;23500;53.268;8.308;2022-08-05T15:37:10;1.95;;;1.02;;
37657;SDS011;23500;53.268;8.308;2022-08-05T15:39:36;4.65;;;1.40;;
37657;SDS011;23500;53.268;8.308;2022-08-05T15:42:01;2.30;;;0.90;;
37657;SDS011;23500;53.268;8.308;2022-08-05T15:44:27;1.40;;;0.90;;
37657;SDS011;23500;53.268;8.308;2022-08-05T15:46:53;1.95;;;1.20;;
37657;SDS011;23500;53.268;8.308;2022-08-05T15:49:19;1.10;;;0.82;;
37657;SDS011;23500;53.268;8.308;2022-08-05T15:51:45;2.45;;;1.10;;
37657;SDS011;23500;53.268;8.308;2022-08-05T15:54:10;0.90;;;0.90;;
37657;SDS011;23500;53.268;8.308;2022-08-05T15:56:36;2.47;;;0.90;;
37657;SDS011;23500;53.268;8.308;2022-08-05T15:59:02;3.00;;;1.00;;